Addy, Washington
Current Conditions -  °F | °C
As of 12:11 AM on Wednesday 26 Nov 2014 (Local Time) from KDEW Reporting Station
Light Snow Light Snow  
Wind Chill: 33°   Ceiling: 2900
Heat Index: 33°   Visibility: 3mi
Dew Point: 32°   Wind: 3mph
Humidity: 96%   Direction: 320°NW
Pressure: 30.17"   Gusts: NA
Location:  48.36°N, 117.84°W
Report Text: KDEW 260811Z AUTO 32003KT 3SM -SN BR FEW004 SCT021 OVC029 01/00 A3017 RMK AO2 P0000 T00060000
Loading
Personal Weather Stations






























Interactive Weather Map New forecast layout! Learn more

10-Day Weather Forecast

Advertisements
Track Severe Weather on mobile